Time;durP1;ratioP1;P1;durP2;ratioP2;P2;SDS_P1;SDS_P2;PMS_P1;PMS_P2;Temp;Humidity;BMP_temperature;BMP_pressure;BME280_temperature;BME280_humidity;BME280_pressure;Samples;Min_cycle;Max_cycle;Signal;HPM_P1;HPM_P2
2023/10/05 00:04:24;;;;;;;3.50;1.35;;;;;;;;;;4997374;28;20026;-89
2023/10/05 00:06:53;;;;;;;3.95;1.65;;;;;;;;;;4997101;28;20022;-92
2023/10/05 00:09:19;;;;;;;6.13;1.73;;;;;;;;;;5016852;28;20038;-92
2023/10/05 00:11:45;;;;;;;3.65;1.70;;;;;;;;;;5018487;28;20037;-91
2023/10/05 00:14:12;;;;;;;1.85;1.50;;;;;;;;;;4998219;28;20031;-91
2023/10/05 00:16:38;;;;;;;2.03;1.45;;;;;;;;;;4997262;28;20117;-90
2023/10/05 00:19:15;;;;;;;2.10;1.58;;;;;;;;;;4997666;28;20073;-90
2023/10/05 00:21:56;;;;;;;4.10;1.42;;;;;;;;;;4996565;28;20058;-90
2023/10/05 00:24:32;;;;;;;2.25;1.00;;;;;;;;;;4995496;28;20079;-90
2023/10/05 00:26:58;;;;;;;3.08;1.70;;;;;;;;;;4995343;28;20018;-92
2023/10/05 00:29:40;;;;;;;2.78;1.45;;;;;;;;;;4994844;28;20034;-91
2023/10/05 00:32:09;;;;;;;;;;;;;;;;;;4997651;28;20044;-87
2023/10/05 00:34:35;;;;;;;1.25;1.02;;;;;;;;;;4995137;28;19913;-89
2023/10/05 00:37:00;;;;;;;1.50;1.25;;;;;;;;;;4994636;28;20116;-88
2023/10/05 00:39:31;;;;;;;1.42;1.20;;;;;;;;;;4995565;28;20520;-89
2023/10/05 00:44:30;;;;;;;2.58;1.80;;;;;;;;;;4996920;28;20022;-92
2023/10/05 00:46:59;;;;;;;1.42;1.23;;;;;;;;;;4997060;28;20015;-91
2023/10/05 00:49:30;;;;;;;3.00;1.42;;;;;;;;;;4979467;28;20033;-92
2023/10/05 00:52:15;;;;;;;2.20;1.42;;;;;;;;;;4977454;28;20030;-87
2023/10/05 00:54:45;;;;;;;7.00;1.38;;;;;;;;;;4975459;28;20553;-88
2023/10/05 00:57:15;;;;;;;1.58;1.25;;;;;;;;;;4973381;28;20045;-91
2023/10/05 00:59:44;;;;;;;3.90;1.60;;;;;;;;;;4973389;28;20379;-89
2023/10/05 01:02:16;;;;;;;2.45;1.60;;;;;;;;;;5004015;28;20030;-87
2023/10/05 01:07:18;;;;;;;1.75;1.25;;;;;;;;;;5014170;28;20032;-89
2023/10/05 01:12:43;;;;;;;3.80;1.80;;;;;;;;;;5012137;28;20026;-90
2023/10/05 01:15:15;;;;;;;1.45;1.35;;;;;;;;;;5013615;28;20038;-88
2023/10/05 01:17:41;;;;;;;2.80;1.70;;;;;;;;;;5013049;28;20055;-88
2023/10/05 01:22:38;;;;;;;2.88;1.58;;;;;;;;;;5013859;28;20040;-87
2023/10/05 01:25:08;;;;;;;2.80;1.42;;;;;;;;;;5012206;28;20151;-88
2023/10/05 01:27:36;;;;;;;4.72;1.98;;;;;;;;;;5012401;28;20029;-88
2023/10/05 01:30:03;;;;;;;2.67;1.52;;;;;;;;;;5012150;28;20033;-87
2023/10/05 01:32:33;;;;;;;2.95;1.83;;;;;;;;;;5012358;28;20540;-89
2023/10/05 01:34:58;;;;;;;4.78;1.83;;;;;;;;;;5012324;28;20197;-87
2023/10/05 01:37:26;;;;;;;2.45;1.15;;;;;;;;;;5012392;28;20026;-88
2023/10/05 01:39:52;;;;;;;5.05;1.88;;;;;;;;;;5013508;28;20041;-86
2023/10/05 01:42:18;;;;;;;2.05;1.70;;;;;;;;;;5013266;28;20093;-87
2023/10/05 01:44:47;;;;;;;1.80;1.45;;;;;;;;;;5015838;28;20077;-86
2023/10/05 01:47:17;;;;;;;3.05;1.75;;;;;;;;;;5016400;28;20018;-89
2023/10/05 01:49:46;;;;;;;1.38;1.25;;;;;;;;;;5015732;28;20108;-88
2023/10/05 01:52:18;;;;;;;1.30;1.20;;;;;;;;;;5016860;28;20188;-87
2023/10/05 01:54:44;;;;;;;2.50;1.65;;;;;;;;;;5015939;28;20041;-88
2023/10/05 01:57:12;;;;;;;2.33;1.33;;;;;;;;;;5016450;28;20018;-89
2023/10/05 01:59:39;;;;;;;2.03;1.50;;;;;;;;;;5016388;28;20101;-89
2023/10/05 02:02:09;;;;;;;2.00;1.67;;;;;;;;;;5017845;28;20100;-88
2023/10/05 02:04:38;;;;;;;1.83;1.58;;;;;;;;;;5016623;28;20052;-88
2023/10/05 02:07:04;;;;;;;1.55;1.23;;;;;;;;;;5016580;28;20028;-86
2023/10/05 02:09:31;;;;;;;2.28;1.27;;;;;;;;;;5018145;28;20025;-87
2023/10/05 02:12:01;;;;;;;6.15;1.85;;;;;;;;;;5016526;28;20023;-88
2023/10/05 02:14:26;;;;;;;1.73;1.45;;;;;;;;;;5017121;28;20087;-86
2023/10/05 02:16:52;;;;;;;2.92;1.88;;;;;;;;;;4997352;28;20031;-88
2023/10/05 02:19:19;;;;;;;3.03;1.80;;;;;;;;;;4997935;28;20022;-87
2023/10/05 02:21:45;;;;;;;1.55;1.33;;;;;;;;;;4998351;28;20030;-88
2023/10/05 02:24:22;;;;;;;1.20;1.10;;;;;;;;;;4998444;28;20077;-88
2023/10/05 02:29:34;;;;;;;5.88;1.50;;;;;;;;;;5001184;28;20367;-90
2023/10/05 02:34:35;;;;;;;2.25;1.25;;;;;;;;;;5012541;28;20033;-87
2023/10/05 02:37:01;;;;;;;1.77;1.50;;;;;;;;;;5012650;28;20037;-87
2023/10/05 02:39:27;;;;;;;2.45;1.40;;;;;;;;;;4998019;28;20022;-89
2023/10/05 02:41:54;;;;;;;3.08;1.27;;;;;;;;;;4997927;28;20113;-87
2023/10/05 02:46:51;;;;;;;1.83;1.55;;;;;;;;;;4998701;28;20026;-88
2023/10/05 02:49:18;;;;;;;1.98;1.50;;;;;;;;;;5018326;28;20117;-88
2023/10/05 02:51:44;;;;;;;2.30;1.35;;;;;;;;;;5015869;28;20024;-87
2023/10/05 02:54:12;;;;;;;5.20;1.50;;;;;;;;;;5017602;28;20022;-87
2023/10/05 02:56:40;;;;;;;3.42;1.73;;;;;;;;;;5019030;28;20029;-88
2023/10/05 02:59:14;;;;;;;4.30;1.70;;;;;;;;;;5017072;28;20021;-88
2023/10/05 03:01:41;;;;;;;2.20;1.50;;;;;;;;;;5013881;28;20228;-87
2023/10/05 03:04:16;;;;;;;1.75;1.35;;;;;;;;;;5013896;28;20037;-89
2023/10/05 03:06:45;;;;;;;1.77;1.45;;;;;;;;;;5016318;28;20523;-89
2023/10/05 03:09:10;;;;;;;1.85;1.63;;;;;;;;;;5015506;28;20029;-88
2023/10/05 03:11:41;;;;;;;2.80;1.90;;;;;;;;;;5015439;28;20099;-87
2023/10/05 03:14:10;;;;;;;2.03;1.45;;;;;;;;;;5023059;22;20034;-83
2023/10/05 03:16:48;;;;;;;2.97;1.50;;;;;;;;;;4974288;28;20034;-84
2023/10/05 03:19:22;;;;;;;1.55;1.40;;;;;;;;;;4971096;28;20027;-83
2023/10/05 03:21:49;;;;;;;5.47;1.70;;;;;;;;;;4981732;28;20035;-83
2023/10/05 03:24:14;;;;;;;3.58;2.10;;;;;;;;;;4986523;28;20049;-84
2023/10/05 03:26:41;;;;;;;1.45;1.35;;;;;;;;;;4983504;28;20046;-83
2023/10/05 03:29:11;;;;;;;2.72;1.50;;;;;;;;;;4979424;28;20026;-83
2023/10/05 03:32:04;;;;;;;2.33;1.33;;;;;;;;;;4980009;28;20038;-84
2023/10/05 03:34:32;;;;;;;3.80;1.73;;;;;;;;;;5008982;28;20022;-83
2023/10/05 03:36:59;;;;;;;2.50;1.73;;;;;;;;;;4981479;28;20031;-84
2023/10/05 03:39:28;;;;;;;1.40;1.30;;;;;;;;;;4978047;28;20026;-83
2023/10/05 03:41:54;;;;;;;2.72;1.63;;;;;;;;;;4977290;28;20027;-84
2023/10/05 03:44:24;;;;;;;1.85;1.58;;;;;;;;;;4981522;28;20066;-84
2023/10/05 03:46:52;;;;;;;1.70;1.45;;;;;;;;;;4976425;28;20019;-84
2023/10/05 03:49:21;;;;;;;2.65;2.10;;;;;;;;;;4985849;28;20570;-84
2023/10/05 03:51:50;;;;;;;1.83;1.55;;;;;;;;;;4976376;28;20058;-84
2023/10/05 03:54:18;;;;;;;3.22;1.95;;;;;;;;;;4974856;28;20045;-83
2023/10/05 03:56:50;;;;;;;1.90;1.67;;;;;;;;;;4982589;28;20058;-83
2023/10/05 03:59:16;;;;;;;6.38;2.08;;;;;;;;;;4977473;28;20029;-84
2023/10/05 04:01:42;;;;;;;3.88;1.80;;;;;;;;;;4978492;28;20410;-83
2023/10/05 04:04:08;;;;;;;3.33;1.65;;;;;;;;;;4972104;28;20039;-84
2023/10/05 04:06:36;;;;;;;2.83;1.80;;;;;;;;;;4974256;28;20504;-83
2023/10/05 04:09:11;;;;;;;1.60;1.50;;;;;;;;;;4977281;28;20023;-84
2023/10/05 04:11:36;;;;;;;1.98;1.77;;;;;;;;;;4976676;28;20031;-84
2023/10/05 04:14:03;;;;;;;3.33;2.25;;;;;;;;;;4975760;28;20049;-83
2023/10/05 04:16:33;;;;;;;2.03;1.60;;;;;;;;;;4976462;28;20030;-84
2023/10/05 04:19:01;;;;;;;2.22;1.90;;;;;;;;;;4976561;28;20035;-83
2023/10/05 04:21:26;;;;;;;3.38;1.90;;;;;;;;;;4977520;28;20026;-84
2023/10/05 04:23:59;;;;;;;3.70;1.95;;;;;;;;;;4978636;28;20041;-83
2023/10/05 04:29:09;;;;;;;2.35;1.63;;;;;;;;;;4975446;28;19925;-84
2023/10/05 04:31:37;;;;;;;4.15;1.75;;;;;;;;;;4974093;28;20030;-84
2023/10/05 04:34:11;;;;;;;1.90;1.63;;;;;;;;;;4978546;28;20027;-84
2023/10/05 04:36:41;;;;;;;10.90;2.35;;;;;;;;;;4979028;28;20210;-84
2023/10/05 04:39:07;;;;;;;4.00;1.92;;;;;;;;;;4972497;28;20057;-84
2023/10/05 04:41:38;;;;;;;2.08;1.65;;;;;;;;;;4977164;28;20026;-84
2023/10/05 04:44:07;;;;;;;1.70;1.60;;;;;;;;;;4975203;28;20121;-84
2023/10/05 04:46:33;;;;;;;3.60;2.10;;;;;;;;;;4975635;28;20058;-84
2023/10/05 04:49:12;;;;;;;2.05;1.50;;;;;;;;;;4975831;28;20031;-84
2023/10/05 04:51:39;;;;;;;3.00;1.85;;;;;;;;;;4971292;28;20517;-83
2023/10/05 04:54:11;;;;;;;2.97;1.80;;;;;;;;;;4986125;28;20077;-85
2023/10/05 04:56:43;;;;;;;2.60;1.85;;;;;;;;;;4988345;28;20089;-84
2023/10/05 05:07:10;;;;;;;2.33;1.73;;;;;;;;;;4971200;28;20026;-84
2023/10/05 05:09:39;;;;;;;3.08;2.10;;;;;;;;;;4972774;28;20027;-85
2023/10/05 05:12:09;;;;;;;2.72;1.90;;;;;;;;;;4974355;28;20063;-84
2023/10/05 05:14:41;;;;;;;1.98;1.70;;;;;;;;;;4968522;28;20038;-84
2023/10/05 05:17:11;;;;;;;5.03;2.00;;;;;;;;;;4969611;28;20023;-85
2023/10/05 05:19:40;;;;;;;1.88;1.73;;;;;;;;;;4976923;28;20055;-84
2023/10/05 05:22:07;;;;;;;2.10;1.83;;;;;;;;;;4978125;28;20030;-84
2023/10/05 05:24:33;;;;;;;2.75;1.90;;;;;;;;;;4979669;28;20035;-84
2023/10/05 05:29:45;;;;;;;1.95;1.73;;;;;;;;;;4974840;28;20031;-83
2023/10/05 05:32:10;;;;;;;5.13;2.38;;;;;;;;;;4978250;28;20023;-84
2023/10/05 05:41:16;;;;;;;1.88;1.27;;;;;;;;;;4978307;28;20065;-84
2023/10/05 05:43:42;;;;;;;2.33;1.73;;;;;;;;;;4983613;28;20026;-84
2023/10/05 05:46:12;;;;;;;3.50;2.00;;;;;;;;;;4972321;28;20035;-84
2023/10/05 05:48:48;;;;;;;3.28;1.90;;;;;;;;;;4981429;28;20019;-83
2023/10/05 05:51:14;;;;;;;6.97;1.90;;;;;;;;;;4978540;28;20073;-84
2023/10/05 05:53:49;;;;;;;2.33;1.70;;;;;;;;;;4977434;28;20039;-83
2023/10/05 05:56:18;;;;;;;3.50;2.35;;;;;;;;;;4986498;28;20038;-83
2023/10/05 05:58:47;;;;;;;2.53;1.45;;;;;;;;;;4973281;28;20031;-83
2023/10/05 06:01:20;;;;;;;3.05;2.05;;;;;;;;;;4972159;28;20097;-83
2023/10/05 06:03:49;;;;;;;2.42;1.60;;;;;;;;;;4975306;28;20030;-82
2023/10/05 06:06:16;;;;;;;2.33;1.95;;;;;;;;;;4985572;28;20039;-84
2023/10/05 06:08:42;;;;;;;3.50;2.08;;;;;;;;;;4979664;28;20466;-84
2023/10/05 06:11:08;;;;;;;3.92;1.83;;;;;;;;;;4991923;28;20046;-84
2023/10/05 06:13:37;;;;;;;6.30;2.28;;;;;;;;;;4983376;28;20026;-83
2023/10/05 06:16:06;;;;;;;1.55;1.45;;;;;;;;;;4984164;28;20049;-83
2023/10/05 06:18:32;;;;;;;2.42;1.85;;;;;;;;;;4979827;28;20515;-84
2023/10/05 06:20:58;;;;;;;7.95;2.03;;;;;;;;;;4980239;28;20034;-84
2023/10/05 06:23:24;;;;;;;8.90;2.00;;;;;;;;;;4978526;28;20034;-84
2023/10/05 06:25:53;;;;;;;3.35;1.80;;;;;;;;;;4984500;28;21621;-86
2023/10/05 06:31:40;;;;;;;3.95;1.80;;;;;;;;;;4974796;28;20041;-78
2023/10/05 06:34:09;;;;;;;1.90;1.60;;;;;;;;;;4986414;28;20027;-78
2023/10/05 06:36:38;;;;;;;4.30;2.15;;;;;;;;;;4986261;28;20069;-79
2023/10/05 06:39:09;;;;;;;2.58;1.65;;;;;;;;;;4995834;28;20034;-79
2023/10/05 06:41:36;;;;;;;3.95;2.50;;;;;;;;;;4983610;28;20312;-79
2023/10/05 06:44:02;;;;;;;3.75;2.05;;;;;;;;;;4986888;28;20383;-79
2023/10/05 06:46:28;;;;;;;1.88;1.77;;;;;;;;;;4980495;28;20033;-78
2023/10/05 06:48:55;;;;;;;3.30;2.22;;;;;;;;;;4982123;28;20054;-78
2023/10/05 06:51:27;;;;;;;3.28;2.10;;;;;;;;;;4982871;28;20023;-79
2023/10/05 06:53:53;;;;;;;4.95;2.17;;;;;;;;;;4982703;28;20057;-79
2023/10/05 06:56:22;;;;;;;2.88;1.92;;;;;;;;;;4980412;28;20023;-79
2023/10/05 06:58:48;;;;;;;3.85;1.88;;;;;;;;;;4983390;28;20067;-78
2023/10/05 07:01:14;;;;;;;3.58;2.15;;;;;;;;;;4981038;28;20088;-79
2023/10/05 07:03:40;;;;;;;3.95;1.98;;;;;;;;;;4980492;28;20679;-79
2023/10/05 07:06:05;;;;;;;2.58;1.80;;;;;;;;;;4990291;28;20034;-79
2023/10/05 07:08:34;;;;;;;4.07;1.80;;;;;;;;;;4984134;28;20018;-78
2023/10/05 07:10:59;;;;;;;2.50;1.90;;;;;;;;;;4981781;28;20029;-79
2023/10/05 07:13:28;;;;;;;3.90;2.22;;;;;;;;;;4990442;28;20035;-78
2023/10/05 07:15:55;;;;;;;4.35;2.05;;;;;;;;;;4982661;28;20518;-78
2023/10/05 07:18:20;;;;;;;3.80;1.95;;;;;;;;;;4993076;28;20390;-78
2023/10/05 07:20:46;;;;;;;3.97;1.80;;;;;;;;;;4986703;28;20039;-79
2023/10/05 07:23:11;;;;;;;3.08;2.17;;;;;;;;;;4991180;28;20018;-79
2023/10/05 07:25:37;;;;;;;3.65;1.85;;;;;;;;;;4997695;28;20109;-79
2023/10/05 07:28:04;;;;;;;5.78;2.40;;;;;;;;;;4988855;28;20018;-79
2023/10/05 07:30:32;;;;;;;2.20;2.00;;;;;;;;;;4984663;28;20205;-79
2023/10/05 07:32:57;;;;;;;10.10;2.17;;;;;;;;;;4981456;28;20030;-78
2023/10/05 07:35:24;;;;;;;2.45;2.17;;;;;;;;;;4986721;28;20046;-79
2023/10/05 07:37:51;;;;;;;4.03;2.40;;;;;;;;;;4987615;28;20021;-78
2023/10/05 07:40:18;;;;;;;1.98;1.75;;;;;;;;;;4977501;28;20057;-79
2023/10/05 07:42:43;;;;;;;9.15;2.20;;;;;;;;;;4978955;28;20026;-79
2023/10/05 07:45:13;;;;;;;3.45;2.58;;;;;;;;;;4978056;28;20461;-79
2023/10/05 07:47:42;;;;;;;4.40;2.33;;;;;;;;;;4977942;28;20262;-80
2023/10/05 07:50:10;;;;;;;3.75;1.80;;;;;;;;;;4979442;28;20058;-79
2023/10/05 07:52:40;;;;;;;2.25;2.00;;;;;;;;;;4978297;28;20023;-79
2023/10/05 07:55:06;;;;;;;3.72;1.98;;;;;;;;;;4988168;28;20514;-79
2023/10/05 07:57:32;;;;;;;5.15;2.13;;;;;;;;;;4992154;28;20278;-78
2023/10/05 07:59:57;;;;;;;4.00;2.20;;;;;;;;;;4977095;28;20030;-79
2023/10/05 08:02:23;;;;;;;2.88;1.98;;;;;;;;;;4976253;28;20023;-79
2023/10/05 08:04:48;;;;;;;4.07;2.17;;;;;;;;;;4973323;28;20027;-79
2023/10/05 08:07:15;;;;;;;2.28;1.75;;;;;;;;;;4980074;28;20023;-79
2023/10/05 08:09:43;;;;;;;3.13;2.28;;;;;;;;;;4974081;28;20018;-79
2023/10/05 08:12:13;;;;;;;4.60;2.28;;;;;;;;;;4975933;28;20438;-78
2023/10/05 08:14:45;;;;;;;5.15;2.20;;;;;;;;;;4975722;28;20122;-78
2023/10/05 08:17:12;;;;;;;;;;;;;;;;;;4976413;28;20057;-79
2023/10/05 08:19:37;;;;;;;3.17;1.83;;;;;;;;;;4976654;28;19914;-79
2023/10/05 08:22:03;;;;;;;2.55;1.83;;;;;;;;;;4975440;28;20030;-79
2023/10/05 08:24:31;;;;;;;3.08;2.20;;;;;;;;;;4984622;28;20022;-79
2023/10/05 08:26:59;;;;;;;5.53;2.08;;;;;;;;;;4986197;28;20027;-78
2023/10/05 08:29:26;;;;;;;4.53;2.30;;;;;;;;;;4976279;28;20123;-79
2023/10/05 08:31:52;;;;;;;3.70;1.98;;;;;;;;;;4978331;28;20019;-78
2023/10/05 08:34:22;;;;;;;4.32;2.08;;;;;;;;;;4977496;28;20059;-79
2023/10/05 08:36:53;;;;;;;5.07;2.08;;;;;;;;;;4992110;28;20030;-79
2023/10/05 08:39:23;;;;;;;3.75;2.33;;;;;;;;;;4993081;28;20502;-79
2023/10/05 08:41:48;;;;;;;3.90;1.70;;;;;;;;;;4977475;28;20030;-79
2023/10/05 08:44:26;;;;;;;3.15;1.65;;;;;;;;;;5001255;28;20396;-79
2023/10/05 08:46:52;;;;;;;6.15;2.33;;;;;;;;;;4976684;28;20015;-79
2023/10/05 08:49:19;;;;;;;5.63;2.00;;;;;;;;;;4977782;28;20014;-80
2023/10/05 08:51:44;;;;;;;2.10;1.48;;;;;;;;;;4979790;28;20015;-80
2023/10/05 08:54:11;;;;;;;3.72;2.08;;;;;;;;;;4988323;28;20382;-80
2023/10/05 08:56:47;;;;;;;4.13;2.03;;;;;;;;;;4989597;28;20026;-80
2023/10/05 08:59:13;;;;;;;10.63;2.70;;;;;;;;;;4977344;28;20065;-79
2023/10/05 09:01:52;;;;;;;4.30;2.30;;;;;;;;;;4977834;28;20105;-80
2023/10/05 09:04:29;;;;;;;6.60;1.83;;;;;;;;;;4981258;28;20042;-80
2023/10/05 09:07:08;;;;;;;3.92;1.85;;;;;;;;;;4981607;28;20486;-78
2023/10/05 09:09:54;;;;;;;4.63;2.17;;;;;;;;;;4992620;28;20030;-79
2023/10/05 09:12:41;;;;;;;5.93;1.92;;;;;;;;;;4966805;28;20542;-79
2023/10/05 09:18:00;;;;;;;4.38;1.90;;;;;;;;;;4991447;28;20038;-86
2023/10/05 09:20:30;;;;;;;5.07;1.85;;;;;;;;;;4964738;28;20026;-85
2023/10/05 09:22:57;;;;;;;7.25;2.53;;;;;;;;;;4969996;28;20023;-86
2023/10/05 09:25:29;;;;;;;4.93;2.20;;;;;;;;;;4964455;28;20046;-85
2023/10/05 09:28:07;;;;;;;7.53;2.33;;;;;;;;;;4969946;28;20022;-85
2023/10/05 09:30:33;;;;;;;5.07;1.92;;;;;;;;;;4972229;28;20027;-85
2023/10/05 09:33:15;;;;;;;5.53;2.47;;;;;;;;;;4970188;28;20027;-86
2023/10/05 09:35:44;;;;;;;6.18;2.55;;;;;;;;;;4972523;28;20023;-86
2023/10/05 09:38:21;;;;;;;6.32;2.63;;;;;;;;;;4970234;28;20512;-87
2023/10/05 09:40:47;;;;;;;4.28;1.77;;;;;;;;;;4973729;28;20688;-85
2023/10/05 09:43:18;;;;;;;4.47;1.92;;;;;;;;;;4973786;28;20031;-86
2023/10/05 09:45:45;;;;;;;6.22;1.98;;;;;;;;;;4971810;28;20029;-87
2023/10/05 09:48:13;;;;;;;3.85;1.95;;;;;;;;;;4988812;28;20074;-86
2023/10/05 09:50:38;;;;;;;7.25;2.28;;;;;;;;;;4972880;28;20057;-86
2023/10/05 09:53:06;;;;;;;5.47;2.95;;;;;;;;;;4971035;28;20477;-86
2023/10/05 09:55:32;;;;;;;5.28;2.33;;;;;;;;;;4971442;28;20082;-85
2023/10/05 09:58:05;;;;;;;4.10;1.80;;;;;;;;;;4972777;28;20022;-87
2023/10/05 10:03:07;;;;;;;7.82;2.25;;;;;;;;;;4973679;28;20026;-85
2023/10/05 10:06:06;;;;;;;6.18;2.40;;;;;;;;;;5005617;28;20019;-86
2023/10/05 10:08:34;;;;;;;8.30;2.60;;;;;;;;;;4969145;28;20018;-86
2023/10/05 10:11:08;;;;;;;7.82;2.60;;;;;;;;;;4977285;28;20027;-85
2023/10/05 10:13:38;;;;;;;7.88;2.47;;;;;;;;;;4978098;28;20045;-86
2023/10/05 10:16:21;;;;;;;5.53;2.13;;;;;;;;;;4976695;28;20030;-85
2023/10/05 10:19:09;;;;;;;5.88;2.10;;;;;;;;;;4975667;28;20025;-85
2023/10/05 10:21:46;;;;;;;8.65;2.47;;;;;;;;;;4967674;28;20054;-86
2023/10/05 10:24:15;;;;;;;10.73;2.92;;;;;;;;;;4973798;28;20362;-86
2023/10/05 10:26:52;;;;;;;7.45;2.35;;;;;;;;;;4975539;28;20023;-85
2023/10/05 10:29:17;;;;;;;6.82;2.72;;;;;;;;;;4972248;28;20396;-85
2023/10/05 10:31:43;;;;;;;7.38;2.50;;;;;;;;;;4974926;28;20485;-85
2023/10/05 10:34:31;;;;;;;4.20;1.90;;;;;;;;;;4975161;28;20042;-86
2023/10/05 10:36:57;;;;;;;4.68;1.73;;;;;;;;;;4990264;28;20035;-87
2023/10/05 10:39:23;;;;;;;4.70;2.03;;;;;;;;;;4985916;28;20002;-86
2023/10/05 10:42:18;;;;;;;5.45;2.03;;;;;;;;;;4975086;28;20054;-86
2023/10/05 10:47:14;;;;;;;6.25;1.88;;;;;;;;;;4974656;28;20026;-88
2023/10/05 10:49:40;;;;;;;9.02;2.55;;;;;;;;;;4976522;28;20035;-86
2023/10/05 10:52:09;;;;;;;3.58;1.63;;;;;;;;;;4975827;28;20019;-85
2023/10/05 10:54:40;;;;;;;5.88;2.00;;;;;;;;;;4974265;28;20544;-87
2023/10/05 10:57:06;;;;;;;6.75;2.05;;;;;;;;;;4975661;28;20066;-86
2023/10/05 10:59:41;;;;;;;7.40;1.98;;;;;;;;;;4957669;28;20118;-86
2023/10/05 11:02:14;;;;;;;2.50;1.58;;;;;;;;;;4967581;28;20034;-85
2023/10/05 11:04:44;;;;;;;4.28;1.77;;;;;;;;;;4975649;28;20522;-85
2023/10/05 11:07:10;;;;;;;6.15;2.03;;;;;;;;;;4975448;28;20034;-86
2023/10/05 11:09:54;;;;;;;4.93;2.08;;;;;;;;;;4974858;28;20374;-86
2023/10/05 11:12:21;;;;;;;5.38;2.05;;;;;;;;;;5006653;28;20037;-85
2023/10/05 11:14:47;;;;;;;6.68;2.58;;;;;;;;;;4974135;28;20034;-86
2023/10/05 11:17:23;;;;;;;7.50;2.20;;;;;;;;;;4975600;28;20030;-86
2023/10/05 11:19:49;;;;;;;4.50;2.05;;;;;;;;;;4974802;28;20030;-86
2023/10/05 11:22:23;;;;;;;6.22;1.95;;;;;;;;;;5006223;28;20035;-86
2023/10/05 11:25:23;;;;;;;2.75;1.67;;;;;;;;;;4967804;28;20030;-86
2023/10/05 11:27:55;;;;;;;8.65;2.50;;;;;;;;;;4970501;28;20019;-85
2023/10/05 11:30:22;;;;;;;4.63;2.10;;;;;;;;;;5008852;28;20054;-84
2023/10/05 11:32:54;;;;;;;8.50;2.92;;;;;;;;;;4974028;28;20015;-85
2023/10/05 11:35:28;;;;;;;10.23;2.75;;;;;;;;;;4972135;28;20399;-85
2023/10/05 11:37:58;;;;;;;4.53;2.25;;;;;;;;;;4972716;28;20023;-86
2023/10/05 11:40:31;;;;;;;4.25;1.80;;;;;;;;;;4981132;28;20476;-84
2023/10/05 11:42:56;;;;;;;7.30;2.65;;;;;;;;;;4974937;28;20031;-85
2023/10/05 11:45:23;;;;;;;7.45;2.10;;;;;;;;;;4973063;28;20030;-86
2023/10/05 11:47:52;;;;;;;5.05;2.17;;;;;;;;;;4974301;28;20070;-85
2023/10/05 11:50:25;;;;;;;5.50;2.20;;;;;;;;;;5000482;28;20046;-86
2023/10/05 11:52:54;;;;;;;6.30;2.20;;;;;;;;;;4969039;28;20022;-85
2023/10/05 11:55:20;;;;;;;5.55;2.40;;;;;;;;;;4963098;28;20400;-85
2023/10/05 11:57:46;;;;;;;6.88;2.03;;;;;;;;;;4974154;28;20086;-86
2023/10/05 12:00:13;;;;;;;5.43;2.20;;;;;;;;;;4974738;28;20117;-84
2023/10/05 12:02:39;;;;;;;7.65;1.85;;;;;;;;;;4977323;28;20137;-85
2023/10/05 12:05:05;;;;;;;4.25;2.22;;;;;;;;;;4972384;28;20023;-86
2023/10/05 12:07:31;;;;;;;3.45;1.75;;;;;;;;;;4973784;28;20023;-86
2023/10/05 12:09:56;;;;;;;5.50;1.98;;;;;;;;;;5004772;28;20019;-86
2023/10/05 12:12:22;;;;;;;3.80;2.13;;;;;;;;;;4972256;28;20473;-85
2023/10/05 12:14:48;;;;;;;4.43;1.63;;;;;;;;;;4974544;28;20027;-85
2023/10/05 12:17:13;;;;;;;3.53;1.52;;;;;;;;;;4972084;28;20038;-85
2023/10/05 12:19:39;;;;;;;9.85;1.92;;;;;;;;;;4972298;28;20047;-86
2023/10/05 12:22:06;;;;;;;3.65;1.63;;;;;;;;;;5003592;28;20022;-85
2023/10/05 12:24:33;;;;;;;6.35;2.70;;;;;;;;;;4971995;28;20113;-85
2023/10/05 12:26:59;;;;;;;4.50;1.88;;;;;;;;;;4966960;28;20090;-86
2023/10/05 12:29:29;;;;;;;3.10;1.65;;;;;;;;;;4974103;28;20060;-86
2023/10/05 12:32:06;;;;;;;8.43;1.90;;;;;;;;;;4974794;28;20034;-85
2023/10/05 12:34:32;;;;;;;10.05;2.90;;;;;;;;;;4973030;28;20077;-86
2023/10/05 12:36:57;;;;;;;7.20;2.22;;;;;;;;;;4970418;28;20437;-85
2023/10/05 12:39:27;;;;;;;6.25;2.42;;;;;;;;;;4975017;28;20386;-85
2023/10/05 12:41:54;;;;;;;4.88;2.38;;;;;;;;;;4976436;28;20022;-87
2023/10/05 12:44:20;;;;;;;3.80;1.75;;;;;;;;;;4975254;28;20525;-85
2023/10/05 12:46:46;;;;;;;8.13;2.67;;;;;;;;;;4973768;28;20061;-85
2023/10/05 12:49:16;;;;;;;3.40;1.80;;;;;;;;;;4975651;28;20031;-86
2023/10/05 12:51:44;;;;;;;3.75;2.10;;;;;;;;;;4978777;28;20053;-85
2023/10/05 12:54:18;;;;;;;4.82;2.20;;;;;;;;;;4979519;28;20078;-86
2023/10/05 12:56:51;;;;;;;7.93;2.50;;;;;;;;;;4979735;28;20045;-86
2023/10/05 12:59:17;;;;;;;5.22;2.08;;;;;;;;;;4977049;28;20512;-85
2023/10/05 13:01:43;;;;;;;4.25;2.13;;;;;;;;;;4979178;28;20436;-85
2023/10/05 13:04:09;;;;;;;3.78;1.80;;;;;;;;;;4975704;28;20039;-87
2023/10/05 13:06:38;;;;;;;9.13;2.40;;;;;;;;;;4974519;28;20090;-85
2023/10/05 13:09:11;;;;;;;7.25;1.92;;;;;;;;;;4974684;28;20110;-84
2023/10/05 13:11:39;;;;;;;5.22;1.67;;;;;;;;;;4978102;28;20503;-84
2023/10/05 13:14:08;;;;;;;5.25;1.73;;;;;;;;;;4979329;28;20030;-85
2023/10/05 13:16:37;;;;;;;7.32;1.98;;;;;;;;;;4972888;28;20089;-85
2023/10/05 13:19:06;;;;;;;4.85;1.90;;;;;;;;;;4976471;28;20507;-84
2023/10/05 13:21:31;;;;;;;5.07;2.03;;;;;;;;;;4977215;28;20062;-84
2023/10/05 13:23:57;;;;;;;5.22;2.05;;;;;;;;;;4994217;28;20120;-84
2023/10/05 13:26:32;;;;;;;10.75;2.97;;;;;;;;;;4972495;28;20034;-86
2023/10/05 13:28:59;;;;;;;5.68;2.13;;;;;;;;;;4974742;28;20034;-85
2023/10/05 13:31:25;;;;;;;4.93;1.95;;;;;;;;;;4981054;28;20089;-85
2023/10/05 13:33:54;;;;;;;5.63;2.13;;;;;;;;;;5006546;28;20030;-85
2023/10/05 13:36:21;;;;;;;7.10;2.20;;;;;;;;;;4977763;28;20396;-85
2023/10/05 13:38:46;;;;;;;5.65;1.92;;;;;;;;;;4976676;28;20035;-85
2023/10/05 13:41:15;;;;;;;3.50;1.80;;;;;;;;;;5009990;28;20049;-87
2023/10/05 13:43:41;;;;;;;3.53;1.80;;;;;;;;;;5007776;28;20474;-87
2023/10/05 13:46:17;;;;;;;6.75;2.70;;;;;;;;;;4980510;28;20366;-87
2023/10/05 13:48:43;;;;;;;5.68;2.15;;;;;;;;;;4980987;28;20152;-84
2023/10/05 13:51:11;;;;;;;5.90;1.83;;;;;;;;;;4979835;28;20030;-85
2023/10/05 13:53:46;;;;;;;5.10;1.98;;;;;;;;;;4978227;28;20030;-85
2023/10/05 13:56:13;;;;;;;4.78;1.92;;;;;;;;;;4983172;28;20721;-85
2023/10/05 13:58:43;;;;;;;5.90;2.30;;;;;;;;;;4984348;28;20039;-84
2023/10/05 14:01:15;;;;;;;5.07;1.95;;;;;;;;;;5003320;28;20105;-84
2023/10/05 14:03:40;;;;;;;;;;;;;;;;;;4977600;28;20027;-85
2023/10/05 14:06:05;;;;;;;6.85;2.00;;;;;;;;;;4983333;28;19914;-85
2023/10/05 14:08:31;;;;;;;3.80;1.60;;;;;;;;;;4989832;28;20043;-84
2023/10/05 14:10:59;;;;;;;6.70;1.92;;;;;;;;;;4994013;28;20064;-85
2023/10/05 14:13:25;;;;;;;11.27;2.10;;;;;;;;;;4979635;28;20037;-84
2023/10/05 14:15:50;;;;;;;3.92;1.60;;;;;;;;;;4981008;28;20519;-86
2023/10/05 14:18:18;;;;;;;4.78;2.30;;;;;;;;;;4977460;28;20561;-84
2023/10/05 14:20:50;;;;;;;3.58;1.88;;;;;;;;;;4983733;28;20030;-85
2023/10/05 14:23:16;;;;;;;;;;;;;;;;;;4980456;28;20050;-84
2023/10/05 14:25:48;;;;;;;6.38;2.20;;;;;;;;;;4979633;28;20387;-83
2023/10/05 14:28:17;;;;;;;;;;;;;;;;;;4978312;28;20030;-85
2023/10/05 14:30:47;;;;;;;4.88;1.67;;;;;;;;;;4977875;28;19918;-85
2023/10/05 14:33:17;;;;;;;4.63;2.05;;;;;;;;;;4978991;28;20030;-86
2023/10/05 14:35:46;;;;;;;7.93;2.58;;;;;;;;;;4974995;28;20061;-84
2023/10/05 14:38:17;;;;;;;4.35;1.83;;;;;;;;;;4977431;28;20492;-85
2023/10/05 14:40:48;;;;;;;5.43;2.08;;;;;;;;;;4979243;28;20034;-84
2023/10/05 14:43:20;;;;;;;3.22;1.90;;;;;;;;;;4979798;28;20026;-85
2023/10/05 14:45:49;;;;;;;2.88;1.48;;;;;;;;;;4978505;28;20019;-84
2023/10/05 14:48:15;;;;;;;6.72;2.22;;;;;;;;;;5009643;28;20023;-85
2023/10/05 14:50:41;;;;;;;5.60;2.58;;;;;;;;;;4979573;28;20038;-85
2023/10/05 14:53:11;;;;;;;3.92;1.80;;;;;;;;;;4978817;28;20393;-86
2023/10/05 14:55:40;;;;;;;8.73;1.88;;;;;;;;;;4970638;28;20113;-85
2023/10/05 14:58:13;;;;;;;5.07;2.17;;;;;;;;;;4975673;28;20050;-85
2023/10/05 15:00:39;;;;;;;5.18;2.25;;;;;;;;;;4980216;28;20038;-84
2023/10/05 15:03:05;;;;;;;5.18;2.08;;;;;;;;;;4974810;28;20033;-85
2023/10/05 15:05:30;;;;;;;4.85;2.30;;;;;;;;;;4981354;28;20376;-85
2023/10/05 15:07:58;;;;;;;5.30;2.20;;;;;;;;;;5006062;28;20022;-85
2023/10/05 15:10:24;;;;;;;4.18;2.08;;;;;;;;;;4976252;28;20066;-84
2023/10/05 15:12:50;;;;;;;2.50;1.40;;;;;;;;;;4974643;28;20023;-85
2023/10/05 15:15:17;;;;;;;9.25;2.47;;;;;;;;;;4974305;28;20034;-84
2023/10/05 15:17:46;;;;;;;10.18;2.75;;;;;;;;;;4974930;28;20034;-84
2023/10/05 15:20:16;;;;;;;6.60;2.10;;;;;;;;;;4974409;28;20093;-86
2023/10/05 15:22:43;;;;;;;8.63;2.25;;;;;;;;;;4994200;28;20126;-86
2023/10/05 15:25:11;;;;;;;6.35;1.63;;;;;;;;;;4973855;28;20029;-85
2023/10/05 15:27:37;;;;;;;8.15;1.80;;;;;;;;;;4975703;28;20358;-85
2023/10/05 15:30:07;;;;;;;5.75;2.30;;;;;;;;;;5004584;28;20029;-84
2023/10/05 15:32:34;;;;;;;3.53;1.83;;;;;;;;;;4976450;28;20090;-85
2023/10/05 15:35:06;;;;;;;5.80;2.03;;;;;;;;;;4975020;28;20054;-85
2023/10/05 15:37:31;;;;;;;14.13;2.30;;;;;;;;;;4973481;28;20093;-86
2023/10/05 15:39:57;;;;;;;5.10;2.03;;;;;;;;;;4974745;28;20039;-85
2023/10/05 15:42:24;;;;;;;7.30;1.85;;;;;;;;;;4975045;28;20038;-85
2023/10/05 15:44:50;;;;;;;6.15;2.38;;;;;;;;;;4997871;28;20452;-86
2023/10/05 15:47:18;;;;;;;3.65;2.05;;;;;;;;;;4973714;28;20669;-85